sensor_id;sensor_type;location;lat;lon;timestamp;temperature;humidity
11639;DHT22;5875;35.940;126.892;2023-02-22T00:01:00;12.20;21.70
11639;DHT22;5875;35.940;126.892;2023-02-22T00:03:48;12.90;17.90
11639;DHT22;5875;35.940;126.892;2023-02-22T00:06:19;13.60;14.40
11639;DHT22;5875;35.940;126.892;2023-02-22T00:08:47;14.40;15.10
11639;DHT22;5875;35.940;126.892;2023-02-22T00:11:15;15.20;10.20
11639;DHT22;5875;35.940;126.892;2023-02-22T00:13:43;15.70;4.00
11639;DHT22;5875;35.940;126.892;2023-02-22T00:16:16;16.10;1.00
11639;DHT22;5875;35.940;126.892;2023-02-22T00:18:44;16.60;1.00
11639;DHT22;5875;35.940;126.892;2023-02-22T00:21:13;17.00;1.00
11639;DHT22;5875;35.940;126.892;2023-02-22T00:23:42;17.40;1.00
11639;DHT22;5875;35.940;126.892;2023-02-22T00:26:15;17.90;1.00
11639;DHT22;5875;35.940;126.892;2023-02-22T00:28:47;18.40;1.00
11639;DHT22;5875;35.940;126.892;2023-02-22T00:31:15;18.80;1.00
11639;DHT22;5875;35.940;126.892;2023-02-22T00:33:42;19.20;1.00
11639;DHT22;5875;35.940;126.892;2023-02-22T00:36:11;19.70;1.00
11639;DHT22;5875;35.940;126.892;2023-02-22T00:38:40;20.10;1.00
11639;DHT22;5875;35.940;126.892;2023-02-22T00:41:08;20.50;1.00
11639;DHT22;5875;35.940;126.892;2023-02-22T00:43:35;20.90;1.00
11639;DHT22;5875;35.940;126.892;2023-02-22T00:46:03;21.20;1.00
11639;DHT22;5875;35.940;126.892;2023-02-22T00:48:30;21.50;1.00
11639;DHT22;5875;35.940;126.892;2023-02-22T00:50:57;21.80;1.00
11639;DHT22;5875;35.940;126.892;2023-02-22T00:53:24;22.10;1.00
11639;DHT22;5875;35.940;126.892;2023-02-22T00:55:52;22.30;1.00
11639;DHT22;5875;35.940;126.892;2023-02-22T00:58:20;22.30;1.00
11639;DHT22;5875;35.940;126.892;2023-02-22T01:00:48;22.40;1.00
11639;DHT22;5875;35.940;126.892;2023-02-22T01:03:17;22.50;1.00
11639;DHT22;5875;35.940;126.892;2023-02-22T01:05:45;22.80;1.00
11639;DHT22;5875;35.940;126.892;2023-02-22T01:08:14;23.10;1.00
11639;DHT22;5875;35.940;126.892;2023-02-22T01:10:41;23.20;1.00
11639;DHT22;5875;35.940;126.892;2023-02-22T01:13:10;23.50;1.00
11639;DHT22;5875;35.940;126.892;2023-02-22T01:15:40;23.30;1.00
11639;DHT22;5875;35.940;126.892;2023-02-22T01:18:08;23.50;1.00
11639;DHT22;5875;35.940;126.892;2023-02-22T01:20:35;23.80;1.00
11639;DHT22;5875;35.940;126.892;2023-02-22T01:23:04;24.00;1.00
11639;DHT22;5875;35.940;126.892;2023-02-22T01:25:33;24.10;1.00
11639;DHT22;5875;35.940;126.892;2023-02-22T01:28:01;24.20;1.00
11639;DHT22;5875;35.940;126.892;2023-02-22T01:30:31;24.40;1.00
11639;DHT22;5875;35.940;126.892;2023-02-22T01:33:00;24.50;1.00
11639;DHT22;5875;35.940;126.892;2023-02-22T01:35:30;24.60;1.00
11639;DHT22;5875;35.940;126.892;2023-02-22T01:37:58;24.40;1.00
11639;DHT22;5875;35.940;126.892;2023-02-22T01:40:28;24.60;1.00
11639;DHT22;5875;35.940;126.892;2023-02-22T01:43:00;24.70;1.00
11639;DHT22;5875;35.940;126.892;2023-02-22T01:48:04;24.60;1.00
11639;DHT22;5875;35.940;126.892;2023-02-22T01:50:35;24.70;1.00
11639;DHT22;5875;35.940;126.892;2023-02-22T01:53:03;24.50;1.00
11639;DHT22;5875;35.940;126.892;2023-02-22T01:55:32;24.80;1.00
11639;DHT22;5875;35.940;126.892;2023-02-22T01:58:01;24.40;1.00
11639;DHT22;5875;35.940;126.892;2023-02-22T02:00:28;24.90;1.00
11639;DHT22;5875;35.940;126.892;2023-02-22T02:03:07;24.30;1.00
11639;DHT22;5875;35.940;126.892;2023-02-22T02:05:36;23.60;1.00
11639;DHT22;5875;35.940;126.892;2023-02-22T02:08:24;23.50;1.00
11639;DHT22;5875;35.940;126.892;2023-02-22T02:10:55;23.30;1.00
11639;DHT22;5875;35.940;126.892;2023-02-22T02:13:25;23.40;1.00
11639;DHT22;5875;35.940;126.892;2023-02-22T02:15:54;23.40;1.00
11639;DHT22;5875;35.940;126.892;2023-02-22T02:18:22;23.20;1.00
11639;DHT22;5875;35.940;126.892;2023-02-22T02:21:41;23.10;1.00
11639;DHT22;5875;35.940;126.892;2023-02-22T02:29:34;23.80;1.00
11639;DHT22;5875;35.940;126.892;2023-02-22T02:32:38;23.60;1.00
11639;DHT22;5875;35.940;126.892;2023-02-22T02:35:25;22.80;1.00
11639;DHT22;5875;35.940;126.892;2023-02-22T02:40:43;23.00;1.00
11639;DHT22;5875;35.940;126.892;2023-02-22T02:49:04;22.80;1.00
11639;DHT22;5875;35.940;126.892;2023-02-22T02:51:37;23.20;1.00
11639;DHT22;5875;35.940;126.892;2023-02-22T02:54:06;22.50;1.00
11639;DHT22;5875;35.940;126.892;2023-02-22T02:56:34;22.20;1.00
11639;DHT22;5875;35.940;126.892;2023-02-22T02:59:02;22.00;1.00
11639;DHT22;5875;35.940;126.892;2023-02-22T03:07:48;22.70;1.00
11639;DHT22;5875;35.940;126.892;2023-02-22T03:11:17;23.00;1.00
11639;DHT22;5875;35.940;126.892;2023-02-22T03:19:15;21.90;1.00
11639;DHT22;5875;35.940;126.892;2023-02-22T03:25:15;21.70;1.00
11639;DHT22;5875;35.940;126.892;2023-02-22T03:27:47;21.70;1.00
11639;DHT22;5875;35.940;126.892;2023-02-22T03:30:44;21.80;1.00
11639;DHT22;5875;35.940;126.892;2023-02-22T03:33:51;21.80;1.00
11639;DHT22;5875;35.940;126.892;2023-02-22T03:36:32;21.50;1.00
11639;DHT22;5875;35.940;126.892;2023-02-22T03:39:08;22.00;1.00
11639;DHT22;5875;35.940;126.892;2023-02-22T03:41:38;21.80;1.00
11639;DHT22;5875;35.940;126.892;2023-02-22T03:44:10;22.00;1.00
11639;DHT22;5875;35.940;126.892;2023-02-22T03:46:41;22.00;1.00
11639;DHT22;5875;35.940;126.892;2023-02-22T03:49:30;22.10;1.00
11639;DHT22;5875;35.940;126.892;2023-02-22T03:51:59;22.20;1.00
11639;DHT22;5875;35.940;126.892;2023-02-22T03:54:27;22.00;1.00
11639;DHT22;5875;35.940;126.892;2023-02-22T03:56:59;22.00;1.00
11639;DHT22;5875;35.940;126.892;2023-02-22T03:59:30;22.10;1.00
11639;DHT22;5875;35.940;126.892;2023-02-22T04:01:57;22.00;1.00
11639;DHT22;5875;35.940;126.892;2023-02-22T04:04:25;22.10;1.00
11639;DHT22;5875;35.940;126.892;2023-02-22T04:06:53;22.20;1.00
11639;DHT22;5875;35.940;126.892;2023-02-22T04:09:20;22.20;1.00
11639;DHT22;5875;35.940;126.892;2023-02-22T04:11:48;22.20;1.00
11639;DHT22;5875;35.940;126.892;2023-02-22T04:14:15;22.10;1.00
11639;DHT22;5875;35.940;126.892;2023-02-22T04:16:42;22.00;1.00
11639;DHT22;5875;35.940;126.892;2023-02-22T04:19:10;21.70;1.00
11639;DHT22;5875;35.940;126.892;2023-02-22T04:21:37;21.40;1.00
11639;DHT22;5875;35.940;126.892;2023-02-22T04:24:04;21.50;1.00
11639;DHT22;5875;35.940;126.892;2023-02-22T07:33:42;21.30;1.00
11639;DHT22;5875;35.940;126.892;2023-02-22T07:36:09;15.50;1.00
11639;DHT22;5875;35.940;126.892;2023-02-22T07:38:39;15.30;1.00
11639;DHT22;5875;35.940;126.892;2023-02-22T07:41:06;15.20;1.00
11639;DHT22;5875;35.940;126.892;2023-02-22T07:43:33;15.10;1.00
11639;DHT22;5875;35.940;126.892;2023-02-22T07:46:00;14.90;1.00
11639;DHT22;5875;35.940;126.892;2023-02-22T07:48:30;14.80;1.00
11639;DHT22;5875;35.940;126.892;2023-02-22T07:50:58;14.60;1.00
11639;DHT22;5875;35.940;126.892;2023-02-22T07:53:30;14.50;1.00
11639;DHT22;5875;35.940;126.892;2023-02-22T07:56:00;14.40;1.00
11639;DHT22;5875;35.940;126.892;2023-02-22T07:58:30;14.20;1.00
11639;DHT22;5875;35.940;126.892;2023-02-22T08:00:59;14.10;1.00
11639;DHT22;5875;35.940;126.892;2023-02-22T08:03:30;14.10;1.00
11639;DHT22;5875;35.940;126.892;2023-02-22T08:05:59;14.00;1.00
11639;DHT22;5875;35.940;126.892;2023-02-22T08:08:28;13.90;1.00
11639;DHT22;5875;35.940;126.892;2023-02-22T08:10:55;13.80;1.00
11639;DHT22;5875;35.940;126.892;2023-02-22T08:13:23;13.70;1.00
11639;DHT22;5875;35.940;126.892;2023-02-22T08:15:52;13.60;1.00
11639;DHT22;5875;35.940;126.892;2023-02-22T08:18:20;13.50;1.00
11639;DHT22;5875;35.940;126.892;2023-02-22T08:20:49;13.40;1.00
11639;DHT22;5875;35.940;126.892;2023-02-22T08:23:18;13.30;1.00
11639;DHT22;5875;35.940;126.892;2023-02-22T08:25:45;13.20;1.00
11639;DHT22;5875;35.940;126.892;2023-02-22T08:28:15;13.10;1.00
11639;DHT22;5875;35.940;126.892;2023-02-22T08:30:43;13.00;1.00
11639;DHT22;5875;35.940;126.892;2023-02-22T08:33:11;12.90;1.00
11639;DHT22;5875;35.940;126.892;2023-02-22T08:35:41;12.80;1.00
11639;DHT22;5875;35.940;126.892;2023-02-22T08:38:32;12.70;1.00
11639;DHT22;5875;35.940;126.892;2023-02-22T08:41:00;12.60;1.00
11639;DHT22;5875;35.940;126.892;2023-02-22T08:43:27;12.50;1.00
11639;DHT22;5875;35.940;126.892;2023-02-22T08:45:54;12.40;1.00
11639;DHT22;5875;35.940;126.892;2023-02-22T08:48:21;12.20;1.00
11639;DHT22;5875;35.940;126.892;2023-02-22T08:50:49;12.20;1.00
11639;DHT22;5875;35.940;126.892;2023-02-22T08:53:17;12.10;1.00
11639;DHT22;5875;35.940;126.892;2023-02-22T08:55:44;12.00;1.00
11639;DHT22;5875;35.940;126.892;2023-02-22T08:58:12;11.90;1.00
11639;DHT22;5875;35.940;126.892;2023-02-22T09:00:40;11.90;1.00
11639;DHT22;5875;35.940;126.892;2023-02-22T09:03:11;11.80;1.00
11639;DHT22;5875;35.940;126.892;2023-02-22T09:05:40;11.70;1.00
11639;DHT22;5875;35.940;126.892;2023-02-22T09:08:07;11.60;1.00
11639;DHT22;5875;35.940;126.892;2023-02-22T09:10:35;11.60;1.00
11639;DHT22;5875;35.940;126.892;2023-02-22T09:13:03;11.50;1.00
11639;DHT22;5875;35.940;126.892;2023-02-22T09:15:32;11.40;1.00
11639;DHT22;5875;35.940;126.892;2023-02-22T09:18:04;11.30;1.00
11639;DHT22;5875;35.940;126.892;2023-02-22T09:20:33;11.30;1.00
11639;DHT22;5875;35.940;126.892;2023-02-22T09:23:05;11.20;1.00
11639;DHT22;5875;35.940;126.892;2023-02-22T09:25:32;11.10;1.00
11639;DHT22;5875;35.940;126.892;2023-02-22T09:28:04;11.00;1.00
11639;DHT22;5875;35.940;126.892;2023-02-22T09:30:35;11.00;1.00
11639;DHT22;5875;35.940;126.892;2023-02-22T09:33:05;10.90;1.00
11639;DHT22;5875;35.940;126.892;2023-02-22T09:35:35;10.80;1.00
11639;DHT22;5875;35.940;126.892;2023-02-22T09:38:03;10.70;1.00
11639;DHT22;5875;35.940;126.892;2023-02-22T09:40:33;10.60;1.00
11639;DHT22;5875;35.940;126.892;2023-02-22T09:43:35;10.60;1.00
11639;DHT22;5875;35.940;126.892;2023-02-22T09:48:50;10.40;1.00
11639;DHT22;5875;35.940;126.892;2023-02-22T09:54:09;10.30;1.00
11639;DHT22;5875;35.940;126.892;2023-02-22T09:56:40;10.20;1.00
11639;DHT22;5875;35.940;126.892;2023-02-22T09:59:14;10.10;1.00
11639;DHT22;5875;35.940;126.892;2023-02-22T10:01:53;10.00;1.00
11639;DHT22;5875;35.940;126.892;2023-02-22T10:09:52;9.90;1.00
11639;DHT22;5875;35.940;126.892;2023-02-22T10:12:37;9.80;1.00
11639;DHT22;5875;35.940;126.892;2023-02-22T10:23:25;9.60;1.00
11639;DHT22;5875;35.940;126.892;2023-02-22T10:26:20;9.50;1.00
11639;DHT22;5875;35.940;126.892;2023-02-22T10:28:52;9.40;1.00
11639;DHT22;5875;35.940;126.892;2023-02-22T10:31:31;9.40;1.00
11639;DHT22;5875;35.940;126.892;2023-02-22T10:34:08;9.30;1.00
11639;DHT22;5875;35.940;126.892;2023-02-22T10:36:38;9.30;1.00
11639;DHT22;5875;35.940;126.892;2023-02-22T10:39:35;9.20;1.00
11639;DHT22;5875;35.940;126.892;2023-02-22T10:42:05;9.20;1.00
11639;DHT22;5875;35.940;126.892;2023-02-22T10:44:34;9.10;1.00
11639;DHT22;5875;35.940;126.892;2023-02-22T10:47:07;9.10;1.00
11639;DHT22;5875;35.940;126.892;2023-02-22T10:49:45;9.00;1.00
11639;DHT22;5875;35.940;126.892;2023-02-22T10:52:24;9.00;1.00
11639;DHT22;5875;35.940;126.892;2023-02-22T10:54:55;9.00;1.00
11639;DHT22;5875;35.940;126.892;2023-02-22T10:57:34;8.90;1.00
11639;DHT22;5875;35.940;126.892;2023-02-22T11:00:20;8.80;1.00
11639;DHT22;5875;35.940;126.892;2023-02-22T11:03:21;8.70;1.00
11639;DHT22;5875;35.940;126.892;2023-02-22T11:05:50;8.70;1.00
11639;DHT22;5875;35.940;126.892;2023-02-22T11:10:49;8.70;1.00
11639;DHT22;5875;35.940;126.892;2023-02-22T11:13:37;8.60;1.00
11639;DHT22;5875;35.940;126.892;2023-02-22T11:16:20;8.60;1.00
11639;DHT22;5875;35.940;126.892;2023-02-22T11:21:47;8.50;1.00
11639;DHT22;5875;35.940;126.892;2023-02-22T11:24:17;8.50;1.00
11639;DHT22;5875;35.940;126.892;2023-02-22T11:26:54;8.50;1.00
11639;DHT22;5875;35.940;126.892;2023-02-22T11:29:29;8.40;1.00
11639;DHT22;5875;35.940;126.892;2023-02-22T11:32:15;8.40;1.00
11639;DHT22;5875;35.940;126.892;2023-02-22T11:34:47;8.40;1.30
11639;DHT22;5875;35.940;126.892;2023-02-22T11:39:53;8.30;2.30
11639;DHT22;5875;35.940;126.892;2023-02-22T11:42:29;8.30;2.40
11639;DHT22;5875;35.940;126.892;2023-02-22T11:45:12;8.30;3.00
11639;DHT22;5875;35.940;126.892;2023-02-22T11:47:57;8.20;3.20
11639;DHT22;5875;35.940;126.892;2023-02-22T11:57:08;8.10;4.10
11639;DHT22;5875;35.940;126.892;2023-02-22T11:59:17;8.10;3.70
11639;DHT22;5875;35.940;126.892;2023-02-22T12:01:50;8.10;4.60
11639;DHT22;5875;35.940;126.892;2023-02-22T12:04:26;8.00;4.90
11639;DHT22;5875;35.940;126.892;2023-02-22T12:20:59;7.90;6.50
11639;DHT22;5875;35.940;126.892;2023-02-22T12:24:18;7.90;6.30
11639;DHT22;5875;35.940;126.892;2023-02-22T12:27:05;7.80;6.90
11639;DHT22;5875;35.940;126.892;2023-02-22T12:29:45;7.80;7.10
11639;DHT22;5875;35.940;126.892;2023-02-22T12:37:47;7.70;9.00
11639;DHT22;5875;35.940;126.892;2023-02-22T12:43:12;7.70;9.50
11639;DHT22;5875;35.940;126.892;2023-02-22T12:45:49;7.70;10.50
11639;DHT22;5875;35.940;126.892;2023-02-22T12:48:37;7.60;11.00
11639;DHT22;5875;35.940;126.892;2023-02-22T12:54:15;7.60;10.30
11639;DHT22;5875;35.940;126.892;2023-02-22T12:59:31;7.50;11.90
11639;DHT22;5875;35.940;126.892;2023-02-22T13:04:45;7.50;13.10
11639;DHT22;5875;35.940;126.892;2023-02-22T13:07:39;7.40;13.50
11639;DHT22;5875;35.940;126.892;2023-02-22T13:18:54;7.40;14.60
11639;DHT22;5875;35.940;126.892;2023-02-22T13:24:31;7.30;14.70
11639;DHT22;5875;35.940;126.892;2023-02-22T13:27:12;7.30;15.90
11639;DHT22;5875;35.940;126.892;2023-02-22T13:29:47;7.30;16.20
11639;DHT22;5875;35.940;126.892;2023-02-22T13:32:37;7.30;16.60
11639;DHT22;5875;35.940;126.892;2023-02-22T13:35:23;7.20;16.50
11639;DHT22;5875;35.940;126.892;2023-02-22T13:50:24;7.10;18.10
11639;DHT22;5875;35.940;126.892;2023-02-22T13:52:56;7.10;18.30
11639;DHT22;5875;35.940;126.892;2023-02-22T13:55:33;7.10;18.50
11639;DHT22;5875;35.940;126.892;2023-02-22T13:58:04;7.10;18.70
11639;DHT22;5875;35.940;126.892;2023-02-22T14:00:42;7.00;18.90
11639;DHT22;5875;35.940;126.892;2023-02-22T14:13:16;7.00;20.10
11639;DHT22;5875;35.940;126.892;2023-02-22T14:21:24;7.00;20.60
11639;DHT22;5875;35.940;126.892;2023-02-22T14:23:55;7.00;20.80
11639;DHT22;5875;35.940;126.892;2023-02-22T14:26:31;7.00;20.70
11639;DHT22;5875;35.940;126.892;2023-02-22T14:29:13;6.90;21.20
11639;DHT22;5875;35.940;126.892;2023-02-22T14:34:20;6.90;21.50
11639;DHT22;5875;35.940;126.892;2023-02-22T14:39:48;6.90;21.80
11639;DHT22;5875;35.940;126.892;2023-02-22T14:47:52;6.80;21.90
11639;DHT22;5875;35.940;126.892;2023-02-22T14:56:01;6.80;22.40
11639;DHT22;5875;35.940;126.892;2023-02-22T15:03:48;6.70;22.20
11639;DHT22;5875;35.940;126.892;2023-02-22T15:06:22;6.70;22.50
11639;DHT22;5875;35.940;126.892;2023-02-22T15:09:13;6.70;22.60
11639;DHT22;5875;35.940;126.892;2023-02-22T15:11:54;6.70;22.50
11639;DHT22;5875;35.940;126.892;2023-02-22T15:14:39;6.70;21.90
11639;DHT22;5875;35.940;126.892;2023-02-22T15:17:23;6.70;22.00
11639;DHT22;5875;35.940;126.892;2023-02-22T15:19:51;6.60;22.50
11639;DHT22;5875;35.940;126.892;2023-02-22T15:22:26;6.60;22.50
11639;DHT22;5875;35.940;126.892;2023-02-22T15:25:06;6.60;22.80
11639;DHT22;5875;35.940;126.892;2023-02-22T15:27:35;6.60;23.00
11639;DHT22;5875;35.940;126.892;2023-02-22T15:32:45;6.60;22.60
11639;DHT22;5875;35.940;126.892;2023-02-22T15:35:31;6.60;23.40
11639;DHT22;5875;35.940;126.892;2023-02-22T15:40:29;6.50;23.30
11639;DHT22;5875;35.940;126.892;2023-02-22T15:43:22;6.50;23.50
11639;DHT22;5875;35.940;126.892;2023-02-22T15:45:53;6.50;23.60
11639;DHT22;5875;35.940;126.892;2023-02-22T15:48:21;6.50;23.70
11639;DHT22;5875;35.940;126.892;2023-02-22T15:51:12;6.50;23.80
11639;DHT22;5875;35.940;126.892;2023-02-22T15:53:48;6.40;23.50
11639;DHT22;5875;35.940;126.892;2023-02-22T15:56:26;6.40;22.10
11639;DHT22;5875;35.940;126.892;2023-02-22T15:59:09;6.40;21.80
11639;DHT22;5875;35.940;126.892;2023-02-22T16:01:42;6.40;22.70
11639;DHT22;5875;35.940;126.892;2023-02-22T16:04:25;6.40;23.60
11639;DHT22;5875;35.940;126.892;2023-02-22T16:07:02;6.40;23.50
11639;DHT22;5875;35.940;126.892;2023-02-22T16:09:32;6.40;23.80
11639;DHT22;5875;35.940;126.892;2023-02-22T16:14:48;6.40;22.00
11639;DHT22;5875;35.940;126.892;2023-02-22T16:17:28;6.40;23.10
11639;DHT22;5875;35.940;126.892;2023-02-22T16:22:48;6.30;22.60
11639;DHT22;5875;35.940;126.892;2023-02-22T16:27:48;6.30;21.60
11639;DHT22;5875;35.940;126.892;2023-02-22T16:30:37;6.30;21.20
11639;DHT22;5875;35.940;126.892;2023-02-22T16:33:08;6.30;21.30
11639;DHT22;5875;35.940;126.892;2023-02-22T16:35:42;6.30;21.50
11639;DHT22;5875;35.940;126.892;2023-02-22T16:38:18;6.30;20.70
11639;DHT22;5875;35.940;126.892;2023-02-22T16:40:51;6.20;22.40
11639;DHT22;5875;35.940;126.892;2023-02-22T16:43:26;6.20;21.50
11639;DHT22;5875;35.940;126.892;2023-02-22T16:45:55;6.20;21.30
11639;DHT22;5875;35.940;126.892;2023-02-22T16:48:24;6.20;21.40
11639;DHT22;5875;35.940;126.892;2023-02-22T16:50:53;6.10;21.10
11639;DHT22;5875;35.940;126.892;2023-02-22T16:53:23;6.00;26.80
11639;DHT22;5875;35.940;126.892;2023-02-22T16:55:53;5.90;28.00
11639;DHT22;5875;35.940;126.892;2023-02-22T16:58:24;5.80;29.30
11639;DHT22;5875;35.940;126.892;2023-02-22T17:00:55;5.70;35.90
11639;DHT22;5875;35.940;126.892;2023-02-22T17:03:23;5.70;34.80
11639;DHT22;5875;35.940;126.892;2023-02-22T17:05:51;5.70;34.20
11639;DHT22;5875;35.940;126.892;2023-02-22T17:08:18;5.70;33.40
11639;DHT22;5875;35.940;126.892;2023-02-22T17:10:45;5.70;33.30
11639;DHT22;5875;35.940;126.892;2023-02-22T17:13:19;5.70;33.70
11639;DHT22;5875;35.940;126.892;2023-02-22T17:15:48;5.70;34.70
11639;DHT22;5875;35.940;126.892;2023-02-22T17:18:18;5.70;35.90
11639;DHT22;5875;35.940;126.892;2023-02-22T17:20:49;5.70;35.40
11639;DHT22;5875;35.940;126.892;2023-02-22T17:23:17;5.70;37.00
11639;DHT22;5875;35.940;126.892;2023-02-22T17:25:54;5.60;41.20
11639;DHT22;5875;35.940;126.892;2023-02-22T17:28:23;5.50;45.30
11639;DHT22;5875;35.940;126.892;2023-02-22T17:30:51;5.50;44.30
11639;DHT22;5875;35.940;126.892;2023-02-22T17:33:21;5.50;42.90
11639;DHT22;5875;35.940;126.892;2023-02-22T17:35:55;5.60;42.90
11639;DHT22;5875;35.940;126.892;2023-02-22T17:38:23;5.50;45.20
11639;DHT22;5875;35.940;126.892;2023-02-22T17:40:54;5.50;45.90
11639;DHT22;5875;35.940;126.892;2023-02-22T17:43:23;5.50;45.90
11639;DHT22;5875;35.940;126.892;2023-02-22T17:45:50;5.50;46.80
11639;DHT22;5875;35.940;126.892;2023-02-22T17:48:19;5.50;49.00
11639;DHT22;5875;35.940;126.892;2023-02-22T17:50:46;5.40;53.20
11639;DHT22;5875;35.940;126.892;2023-02-22T17:53:15;5.40;55.40
11639;DHT22;5875;35.940;126.892;2023-02-22T17:55:47;5.30;55.70
11639;DHT22;5875;35.940;126.892;2023-02-22T17:58:15;5.30;53.10
11639;DHT22;5875;35.940;126.892;2023-02-22T18:00:45;5.40;52.80
11639;DHT22;5875;35.940;126.892;2023-02-22T18:03:15;5.40;51.40
11639;DHT22;5875;35.940;126.892;2023-02-22T18:05:48;5.40;50.80
11639;DHT22;5875;35.940;126.892;2023-02-22T18:08:16;5.40;50.50
11639;DHT22;5875;35.940;126.892;2023-02-22T18:10:44;5.40;50.20
11639;DHT22;5875;35.940;126.892;2023-02-22T18:13:14;5.50;49.90
11639;DHT22;5875;35.940;126.892;2023-02-22T18:15:46;5.50;50.20
11639;DHT22;5875;35.940;126.892;2023-02-22T18:18:15;5.50;49.60
11639;DHT22;5875;35.940;126.892;2023-02-22T18:20:47;5.50;50.00
11639;DHT22;5875;35.940;126.892;2023-02-22T18:23:20;5.50;50.30
11639;DHT22;5875;35.940;126.892;2023-02-22T18:25:49;5.50;50.60
11639;DHT22;5875;35.940;126.892;2023-02-22T18:28:19;5.50;50.20
11639;DHT22;5875;35.940;126.892;2023-02-22T18:30:48;5.50;51.40
11639;DHT22;5875;35.940;126.892;2023-02-22T18:33:16;5.40;51.20
11639;DHT22;5875;35.940;126.892;2023-02-22T18:35:47;5.40;50.90
11639;DHT22;5875;35.940;126.892;2023-02-22T18:38:18;5.40;51.30
11639;DHT22;5875;35.940;126.892;2023-02-22T18:41:03;5.40;51.70
11639;DHT22;5875;35.940;126.892;2023-02-22T18:43:31;5.40;51.90
11639;DHT22;5875;35.940;126.892;2023-02-22T18:46:18;5.40;53.70
11639;DHT22;5875;35.940;126.892;2023-02-22T18:48:47;5.40;54.00
11639;DHT22;5875;35.940;126.892;2023-02-22T18:51:15;5.30;54.40
11639;DHT22;5875;35.940;126.892;2023-02-22T18:53:43;5.30;54.30
11639;DHT22;5875;35.940;126.892;2023-02-22T18:56:14;5.30;54.80
11639;DHT22;5875;35.940;126.892;2023-02-22T18:58:42;5.30;55.70
11639;DHT22;5875;35.940;126.892;2023-02-22T19:01:14;5.30;56.20
11639;DHT22;5875;35.940;126.892;2023-02-22T19:03:42;5.20;57.20
11639;DHT22;5875;35.940;126.892;2023-02-22T19:06:13;5.20;57.60
11639;DHT22;5875;35.940;126.892;2023-02-22T19:08:42;5.20;59.20
11639;DHT22;5875;35.940;126.892;2023-02-22T19:11:15;5.20;59.80
11639;DHT22;5875;35.940;126.892;2023-02-22T19:13:50;5.20;59.50
11639;DHT22;5875;35.940;126.892;2023-02-22T19:16:19;5.20;59.90
11639;DHT22;5875;35.940;126.892;2023-02-22T19:18:47;5.10;58.40
11639;DHT22;5875;35.940;126.892;2023-02-22T19:21:15;5.10;58.90
11639;DHT22;5875;35.940;126.892;2023-02-22T19:23:42;5.00;59.80
11639;DHT22;5875;35.940;126.892;2023-02-22T19:26:18;5.00;60.80
11639;DHT22;5875;35.940;126.892;2023-02-22T19:28:46;5.00;61.00
11639;DHT22;5875;35.940;126.892;2023-02-22T19:33:42;4.90;60.90
11639;DHT22;5875;35.940;126.892;2023-02-22T19:36:11;4.90;61.00
11639;DHT22;5875;35.940;126.892;2023-02-22T19:38:39;4.80;62.60
11639;DHT22;5875;35.940;126.892;2023-02-22T19:41:18;4.80;63.70
11639;DHT22;5875;35.940;126.892;2023-02-22T19:43:50;4.80;63.70
11639;DHT22;5875;35.940;126.892;2023-02-22T19:46:18;4.80;65.10
11639;DHT22;5875;35.940;126.892;2023-02-22T19:48:47;4.80;65.40
11639;DHT22;5875;35.940;126.892;2023-02-22T19:51:16;4.80;66.20
11639;DHT22;5875;35.940;126.892;2023-02-22T19:53:44;4.70;65.70
11639;DHT22;5875;35.940;126.892;2023-02-22T19:56:20;4.70;65.40
11639;DHT22;5875;35.940;126.892;2023-02-22T19:58:54;4.70;65.80
11639;DHT22;5875;35.940;126.892;2023-02-22T20:01:27;4.70;66.30
11639;DHT22;5875;35.940;126.892;2023-02-22T20:04:00;4.70;66.20
11639;DHT22;5875;35.940;126.892;2023-02-22T20:06:37;4.60;66.50
11639;DHT22;5875;35.940;126.892;2023-02-22T20:09:10;4.60;67.60
11639;DHT22;5875;35.940;126.892;2023-02-22T20:11:38;4.60;67.90
11639;DHT22;5875;35.940;126.892;2023-02-22T20:14:05;4.60;67.80
11639;DHT22;5875;35.940;126.892;2023-02-22T20:16:33;4.50;67.90
11639;DHT22;5875;35.940;126.892;2023-02-22T20:19:01;4.50;68.10
11639;DHT22;5875;35.940;126.892;2023-02-22T20:21:32;4.40;68.80
11639;DHT22;5875;35.940;126.892;2023-02-22T20:24:06;4.40;69.50
11639;DHT22;5875;35.940;126.892;2023-02-22T20:26:38;4.30;70.00
11639;DHT22;5875;35.940;126.892;2023-02-22T20:29:06;4.30;71.20
11639;DHT22;5875;35.940;126.892;2023-02-22T20:31:35;4.30;72.30
11639;DHT22;5875;35.940;126.892;2023-02-22T20:34:03;4.20;73.40
11639;DHT22;5875;35.940;126.892;2023-02-22T20:36:37;4.20;74.00
11639;DHT22;5875;35.940;126.892;2023-02-22T20:39:05;4.20;73.40
11639;DHT22;5875;35.940;126.892;2023-02-22T20:41:34;4.20;74.10
11639;DHT22;5875;35.940;126.892;2023-02-22T20:44:02;4.10;74.60
11639;DHT22;5875;35.940;126.892;2023-02-22T20:46:32;4.10;74.70
11639;DHT22;5875;35.940;126.892;2023-02-22T20:49:06;4.10;76.20
11639;DHT22;5875;35.940;126.892;2023-02-22T20:51:34;4.00;76.80
11639;DHT22;5875;35.940;126.892;2023-02-22T20:54:02;4.00;76.60
11639;DHT22;5875;35.940;126.892;2023-02-22T20:56:30;4.00;78.10
11639;DHT22;5875;35.940;126.892;2023-02-22T20:59:00;4.00;79.10
11639;DHT22;5875;35.940;126.892;2023-02-22T21:01:27;4.00;79.40
11639;DHT22;5875;35.940;126.892;2023-02-22T21:03:59;3.90;78.20
11639;DHT22;5875;35.940;126.892;2023-02-22T21:06:27;3.90;78.20
11639;DHT22;5875;35.940;126.892;2023-02-22T21:08:56;3.90;78.20
11639;DHT22;5875;35.940;126.892;2023-02-22T21:11:26;3.80;77.20
11639;DHT22;5875;35.940;126.892;2023-02-22T21:13:53;3.80;77.40
11639;DHT22;5875;35.940;126.892;2023-02-22T21:16:26;3.80;77.60
11639;DHT22;5875;35.940;126.892;2023-02-22T21:18:57;3.80;78.50
11639;DHT22;5875;35.940;126.892;2023-02-22T21:21:25;3.70;79.20
11639;DHT22;5875;35.940;126.892;2023-02-22T21:23:54;3.70;78.80
11639;DHT22;5875;35.940;126.892;2023-02-22T21:26:24;3.60;81.50
11639;DHT22;5875;35.940;126.892;2023-02-22T21:28:57;3.60;79.20
11639;DHT22;5875;35.940;126.892;2023-02-22T21:31:26;3.60;79.20
11639;DHT22;5875;35.940;126.892;2023-02-22T21:33:55;3.60;80.20
11639;DHT22;5875;35.940;126.892;2023-02-22T21:36:23;3.60;78.20
11639;DHT22;5875;35.940;126.892;2023-02-22T21:38:56;3.50;77.10
11639;DHT22;5875;35.940;126.892;2023-02-22T21:41:29;3.50;79.80
11639;DHT22;5875;35.940;126.892;2023-02-22T21:43:57;3.50;81.10
11639;DHT22;5875;35.940;126.892;2023-02-22T21:46:26;3.40;80.40
11639;DHT22;5875;35.940;126.892;2023-02-22T21:48:56;3.40;78.70
11639;DHT22;5875;35.940;126.892;2023-02-22T21:51:26;3.40;80.10
11639;DHT22;5875;35.940;126.892;2023-02-22T21:54:03;3.40;80.40
11639;DHT22;5875;35.940;126.892;2023-02-22T21:56:34;3.40;80.40
11639;DHT22;5875;35.940;126.892;2023-02-22T21:59:04;3.40;78.20
11639;DHT22;5875;35.940;126.892;2023-02-22T22:01:34;3.30;79.10
11639;DHT22;5875;35.940;126.892;2023-02-22T22:04:02;3.30;80.40
11639;DHT22;5875;35.940;126.892;2023-02-22T22:06:31;3.30;79.50